Time;durP1;ratioP1;P1;durP2;ratioP2;P2;SDS_P1;SDS_P2;PMS_P1;PMS_P2;Temp;Humidity;BMP_temperature;BMP_pressure;BME280_temperature;BME280_humidity;BME280_pressure;Samples;Min_cycle;Max_cycle;Signal;HPM_P1;HPM_P2
2022/02/17 00:02:05;;;;;;;35.97;25.42;;;;;;;9.85;68.28;100801.34;5019809;27;102458;-52
2022/02/17 00:04:31;;;;;;;37.17;25.35;;;;;;;9.85;68.43;100790.47;5027936;27;102659;-52
2022/02/17 00:06:57;;;;;;;36.97;25.50;;;;;;;9.85;68.52;100795.91;5024195;27;103906;-52
2022/02/17 00:09:26;;;;;;;36.83;24.63;;;;;;;9.85;68.84;100786.94;5023288;27;102442;-52
2022/02/17 00:11:52;;;;;;;35.20;24.52;;;;;;;9.84;69.06;100777.97;5026196;27;102597;-52
2022/02/17 00:14:18;;;;;;;37.33;24.25;;;;;;;9.84;68.52;100772.53;5026940;27;102270;-52
2022/02/17 00:16:47;;;;;;;39.65;24.70;;;;;;;9.84;68.75;100767.09;5033418;27;103913;-52
2022/02/17 00:19:14;;;;;;;;;;;;;;;9.84;68.87;100761.69;5026588;27;102247;-52
2022/02/17 00:21:40;;;;;;;36.20;24.35;;;;;;;9.84;68.31;100756.22;5011687;27;102366;-52
2022/02/17 00:24:07;;;;;;;36.28;24.33;;;;;;;9.84;68.66;100756.22;5003902;27;102456;-53
2022/02/17 00:26:35;;;;;;;33.78;24.17;;;;;;;9.84;68.75;100753.53;5006638;27;103754;-53
2022/02/17 00:29:01;;;;;;;33.30;22.88;;;;;;;9.84;68.49;100745.38;5003866;27;104775;-52
2022/02/17 00:31:28;;;;;;;38.00;24.00;;;;;;;9.85;68.50;100751.63;5007291;28;102116;-53
2022/02/17 00:33:54;;;;;;;32.83;23.08;;;;;;;9.84;68.88;100745.38;5012319;27;102805;-52
2022/02/17 00:36:20;;;;;;;33.90;23.60;;;;;;;9.83;68.66;100732.84;5017238;27;104001;-52
2022/02/17 00:38:46;;;;;;;32.42;24.00;;;;;;;9.83;68.51;100721.97;5005941;27;102568;-52
2022/02/17 00:41:13;;;;;;;37.20;24.48;;;;;;;9.84;68.77;100729.06;5014354;27;103107;-52
2022/02/17 00:43:41;;;;;;;35.30;23.35;;;;;;;9.84;69.04;100729.06;5005705;28;102442;-53
2022/02/17 00:46:07;;;;;;;30.92;23.02;;;;;;;9.83;68.71;100716.53;5007319;27;103758;-52
2022/02/17 00:48:33;;;;;;;30.75;22.58;;;;;;;9.84;69.07;100718.19;5020221;27;102592;-52
2022/02/17 00:50:59;;;;;;;32.97;22.35;;;;;;;9.83;68.52;100713.81;5026476;27;102869;-52
2022/02/17 00:53:26;;;;;;;30.90;22.48;;;;;;;9.84;68.87;100720.91;5027819;27;102502;-52
2022/02/17 00:55:52;;;;;;;30.60;22.02;;;;;;;9.84;68.49;100717.34;5018896;27;103921;-52
2022/02/17 00:58:19;;;;;;;31.30;23.27;;;;;;;9.84;68.87;100711.91;5027378;27;102293;-52
2022/02/17 01:00:47;;;;;;;30.33;21.88;;;;;;;9.84;69.06;100723.63;5017313;27;102108;-52
2022/02/17 01:03:13;;;;;;;22.13;16.53;;;;;;;9.84;68.63;100728.22;5023925;27;102628;-52
2022/02/17 01:05:40;;;;;;;28.95;21.45;;;;;;;9.85;68.24;100740.75;5005848;28;104061;-52
2022/02/17 01:08:07;;;;;;;31.67;22.60;;;;;;;9.85;68.68;100725.25;5005527;27;102185;-52
2022/02/17 01:10:33;;;;;;;29.48;21.70;;;;;;;9.84;69.07;100729.06;5007194;27;103046;-52
2022/02/17 01:13:01;;;;;;;31.60;22.02;;;;;;;9.85;68.56;100708.94;5006749;27;104759;-52
2022/02/17 01:15:27;;;;;;;28.67;21.25;;;;;;;9.85;68.48;100706.22;5000408;27;103702;-52
2022/02/17 01:17:55;;;;;;;30.85;21.27;;;;;;;9.85;68.84;100697.25;5002290;28;102365;-52
2022/02/17 01:20:21;;;;;;;31.15;21.20;;;;;;;9.85;68.86;100687.19;5027930;27;102193;-52
2022/02/17 01:22:49;;;;;;;27.88;21.02;;;;;;;9.85;68.47;100689.91;5010500;27;103525;-52
2022/02/17 01:25:16;;;;;;;29.00;20.80;;;;;;;9.85;68.72;100684.47;5001111;28;103765;-53
2022/02/17 01:27:43;;;;;;;29.55;22.05;;;;;;;9.84;68.89;100680.13;5013039;27;103025;-52
2022/02/17 01:30:11;;;;;;;29.05;21.02;;;;;;;9.85;68.86;100680.94;5006140;27;103406;-52
2022/02/17 01:32:37;;;;;;;30.48;21.48;;;;;;;9.84;68.53;100674.69;5015135;27;102464;-52
2022/02/17 01:35:06;;;;;;;29.50;21.35;;;;;;;9.84;68.46;100691.00;4999947;28;103746;-52
2022/02/17 01:37:32;;;;;;;29.13;20.92;;;;;;;9.84;68.30;100691.00;5012967;27;102430;-52
2022/02/17 01:39:58;;;;;;;30.17;20.45;;;;;;;9.85;69.05;100687.19;5006964;27;102273;-52
2022/02/17 01:42:25;;;;;;;29.13;20.95;;;;;;;9.85;68.54;100687.19;5005410;27;102624;-52
2022/02/17 01:44:51;;;;;;;27.13;20.35;;;;;;;9.85;68.25;100681.75;5003726;27;105057;-54
2022/02/17 01:47:18;;;;;;;28.60;20.98;;;;;;;9.85;68.82;100684.47;5006876;28;102278;-52
2022/02/17 01:49:47;;;;;;;29.58;21.17;;;;;;;9.85;68.71;100678.22;4998081;27;102597;-53
2022/02/17 01:52:15;;;;;;;26.50;19.50;;;;;;;9.84;68.83;100674.69;5006860;27;102701;-52
2022/02/17 01:54:44;;;;;;;26.23;19.23;;;;;;;9.85;68.41;100670.88;5002879;27;103802;-52
2022/02/17 01:57:14;;;;;;;27.88;20.42;;;;;;;9.85;68.75;100664.63;5016986;27;102201;-52
2022/02/17 01:59:43;;;;;;;29.17;20.20;;;;;;;9.86;68.81;100660.81;5003135;27;103544;-52
2022/02/17 02:02:09;;;;;;;25.95;19.38;;;;;;;9.85;68.76;100665.44;5004610;27;102220;-52
2022/02/17 02:04:38;;;;;;;28.52;19.55;;;;;;;9.86;68.52;100666.25;5005930;28;104317;-52
2022/02/17 02:07:04;;;;;;;26.80;18.90;;;;;;;9.86;68.61;100661.63;5007453;27;102499;-52
2022/02/17 02:09:33;;;;;;;27.50;18.95;;;;;;;9.85;68.38;100654.56;5003086;27;102418;-52
2022/02/17 02:12:01;;;;;;;29.90;19.10;;;;;;;9.85;68.74;100651.03;5031860;27;102248;-52
2022/02/17 02:14:28;;;;;;;27.02;20.60;;;;;;;9.87;68.28;100659.72;5018285;27;103973;-53
2022/02/17 02:16:54;;;;;;;25.75;19.17;;;;;;;9.85;68.38;100651.84;5014658;27;102249;-52
2022/02/17 02:19:21;;;;;;;27.70;19.67;;;;;;;9.87;68.64;100651.56;5017574;27;102230;-52
2022/02/17 02:21:48;;;;;;;27.10;19.67;;;;;;;9.86;68.24;100644.50;5013880;27;103983;-52
2022/02/17 02:24:15;;;;;;;23.92;19.33;;;;;;;9.86;69.11;100649.94;5004723;28;104105;-52
2022/02/17 02:26:41;;;;;;;26.02;19.13;;;;;;;9.86;68.58;100649.94;5009580;27;102358;-52
2022/02/17 02:29:07;;;;;;;26.88;18.95;;;;;;;9.86;68.74;100649.94;5001125;27;102517;-52
2022/02/17 02:31:34;;;;;;;25.05;18.75;;;;;;;9.85;68.31;100642.88;5021157;27;102372;-52
2022/02/17 02:34:00;;;;;;;25.08;18.70;;;;;;;9.86;68.21;100645.31;5015425;27;103881;-52
2022/02/17 02:36:27;;;;;;;27.92;18.83;;;;;;;9.86;68.69;100639.88;5022058;27;102353;-52
2022/02/17 02:38:55;;;;;;;28.50;19.08;;;;;;;9.86;68.54;100641.78;5009411;28;102478;-52
2022/02/17 02:41:22;;;;;;;26.70;18.73;;;;;;;9.86;68.32;100639.06;5009944;27;102723;-53
2022/02/17 02:43:48;;;;;;;25.88;18.60;;;;;;;9.86;68.76;100633.63;5007581;28;103906;-52
2022/02/17 02:46:15;;;;;;;23.05;18.25;;;;;;;9.86;68.29;100630.91;5009339;27;102480;-52
2022/02/17 02:48:41;;;;;;;24.05;18.33;;;;;;;9.85;68.64;100621.97;5007935;27;102324;-52
2022/02/17 02:51:09;;;;;;;26.92;18.70;;;;;;;9.86;69.08;100631.72;5014297;27;102486;-52
2022/02/17 02:53:35;;;;;;;25.45;18.63;;;;;;;9.86;68.76;100634.44;5008122;27;103895;-52
2022/02/17 02:56:03;;;;;;;27.17;19.88;;;;;;;9.86;68.33;100623.56;5010910;28;102436;-52
2022/02/17 02:58:30;;;;;;;26.40;18.43;;;;;;;9.86;68.78;100623.56;5016148;27;102577;-52
2022/02/17 03:00:56;;;;;;;24.88;17.95;;;;;;;9.85;68.96;100621.97;5026855;27;102829;-52
2022/02/17 03:03:22;;;;;;;24.60;17.90;;;;;;;9.86;68.82;100614.63;5015480;27;102958;-52
2022/02/17 03:05:49;;;;;;;24.02;18.30;;;;;;;9.85;68.40;100611.09;5007994;28;102413;-52
2022/02/17 03:08:16;;;;;;;28.33;18.25;;;;;;;9.86;68.23;100612.72;5016369;27;102598;-52
2022/02/17 03:10:45;;;;;;;24.05;17.80;;;;;;;9.85;68.39;100619.25;5011799;27;102406;-52
2022/02/17 03:13:13;;;;;;;24.83;18.20;;;;;;;9.85;68.86;100616.53;5007113;27;104073;-52
2022/02/17 03:15:39;;;;;;;24.67;17.95;;;;;;;9.86;68.49;100610.00;5020879;27;102435;-52
2022/02/17 03:18:06;;;;;;;23.42;17.27;;;;;;;9.86;68.23;100604.56;5025814;28;102772;-52
2022/02/17 03:20:32;;;;;;;23.48;17.67;;;;;;;9.87;68.82;100603.47;5030386;27;102577;-52
2022/02/17 03:22:58;;;;;;;26.83;18.63;;;;;;;9.85;68.53;100594.78;5022377;27;104058;-52
2022/02/17 03:25:25;;;;;;;25.75;17.25;;;;;;;9.85;68.27;100589.34;5019849;27;102142;-52
2022/02/17 03:27:51;;;;;;;22.48;17.85;;;;;;;9.85;68.29;100594.78;5024404;27;103159;-52
2022/02/17 03:30:18;;;;;;;24.00;17.98;;;;;;;9.86;69.11;100599.13;5015064;27;104322;-52
2022/02/17 03:32:45;;;;;;;23.05;18.13;;;;;;;9.86;68.27;100585.53;5031963;27;103984;-52
2022/02/17 03:35:12;;;;;;;26.42;18.00;;;;;;;9.86;68.35;100587.44;5031095;27;102006;-52
2022/02/17 03:37:38;;;;;;;24.70;17.98;;;;;;;9.85;69.11;100578.47;5016883;27;102212;-52
2022/02/17 03:40:05;;;;;;;26.10;18.40;;;;;;;9.86;68.88;100587.44;4998163;28;102634;-52
2022/02/17 03:42:32;;;;;;;26.63;18.83;;;;;;;9.86;68.88;100568.41;5007599;27;104322;-52
2022/02/17 03:44:58;;;;;;;21.20;17.50;;;;;;;9.86;68.58;100574.66;5008368;27;102336;-52
2022/02/17 03:47:25;;;;;;;25.08;17.67;;;;;;;9.85;68.52;100581.19;5023358;27;102433;-52
2022/02/17 03:49:52;;;;;;;25.15;17.38;;;;;;;9.86;68.31;100574.66;5028497;27;102771;-52
2022/02/17 03:52:18;;;;;;;24.30;17.73;;;;;;;9.86;68.17;100573.84;5011161;27;103860;-52
2022/02/17 03:54:44;;;;;;;21.90;17.08;;;;;;;9.86;68.98;100577.38;5008471;27;102537;-52
2022/02/17 03:57:11;;;;;;;21.63;16.63;;;;;;;9.86;68.82;100569.22;5011492;27;102227;-52
2022/02/17 03:59:37;;;;;;;22.85;16.90;;;;;;;9.86;68.57;100552.91;5017684;27;102224;-52
2022/02/17 04:02:04;;;;;;;22.30;16.80;;;;;;;9.88;68.91;100555.34;5016909;27;104118;-52
2022/02/17 04:04:32;;;;;;;21.42;17.02;;;;;;;9.86;68.58;100552.09;5010032;27;102210;-52
2022/02/17 04:06:58;;;;;;;23.23;17.40;;;;;;;9.86;68.53;100544.75;5004407;27;102185;-52
2022/02/17 04:09:25;;;;;;;24.15;17.77;;;;;;;9.85;68.71;100540.41;5023187;27;102778;-52
2022/02/17 04:11:51;;;;;;;23.25;17.13;;;;;;;9.86;68.98;100528.44;5028639;27;104035;-53
2022/02/17 04:14:18;;;;;;;21.88;16.90;;;;;;;9.86;68.88;100531.16;5028462;27;102536;-52
2022/02/17 04:16:44;;;;;;;24.10;17.23;;;;;;;9.86;68.22;100514.03;5022311;27;102692;-52
2022/02/17 04:19:11;;;;;;;21.45;17.00;;;;;;;9.86;68.78;100514.84;5026689;27;102551;-52
2022/02/17 04:21:39;;;;;;;21.92;15.70;;;;;;;9.85;68.90;100518.66;5028828;27;103889;-52
2022/02/17 04:24:06;;;;;;;21.35;16.20;;;;;;;9.86;69.01;100509.41;5014834;27;102706;-52
2022/02/17 04:26:32;;;;;;;23.65;17.08;;;;;;;9.85;68.43;100496.91;5025798;27;102509;-52
2022/02/17 04:28:59;;;;;;;23.23;17.35;;;;;;;9.86;68.30;100498.53;5000599;28;102585;-52
2022/02/17 04:31:25;;;;;;;21.15;16.50;;;;;;;9.87;68.87;100491.19;5024417;27;103869;-52
2022/02/17 04:33:51;;;;;;;24.08;17.30;;;;;;;9.86;68.71;100481.44;5026516;27;102502;-52
2022/02/17 04:36:18;;;;;;;22.48;16.63;;;;;;;9.87;68.36;100477.63;5009926;27;103025;-52
2022/02/17 04:38:46;;;;;;;23.70;17.17;;;;;;;9.86;68.51;100473.28;5011579;27;102545;-53
2022/02/17 04:43:57;;;;;;;21.17;16.33;;;;;;;9.85;68.48;100458.88;5027795;27;102230;-52
2022/02/17 04:46:23;;;;;;;23.42;16.50;;;;;;;9.85;68.40;100448.00;5003918;28;103553;-52
2022/02/17 04:48:50;;;;;;;25.38;16.55;;;;;;;9.86;68.51;100460.50;5008014;27;102161;-52
2022/02/17 04:51:16;;;;;;;20.80;16.00;;;;;;;9.84;68.80;100454.53;5004683;27;104622;-52
2022/02/17 04:53:42;;;;;;;22.13;16.33;;;;;;;9.85;68.62;100447.19;5004676;28;103364;-52
2022/02/17 04:56:10;;;;;;;22.83;16.17;;;;;;;9.85;68.64;100449.91;5000380;27;102500;-52
2022/02/17 04:58:36;;;;;;;23.80;16.85;;;;;;;9.84;68.68;100443.66;5005966;27;102209;-52
2022/02/17 05:01:03;;;;;;;27.02;17.27;;;;;;;9.85;68.46;100441.75;5005651;27;104203;-52
2022/02/17 05:03:29;;;;;;;21.63;16.15;;;;;;;9.84;68.73;100446.38;5001835;27;102445;-52
2022/02/17 05:05:56;;;;;;;22.65;15.75;;;;;;;9.85;68.60;100431.69;5026126;27;102685;-52
2022/02/17 05:08:23;;;;;;;22.80;16.63;;;;;;;9.85;68.60;100439.84;5013395;27;102261;-52
2022/02/17 05:10:49;;;;;;;23.92;16.98;;;;;;;9.85;69.15;100437.13;5026438;27;103937;-53
2022/02/17 05:13:17;;;;;;;25.63;17.00;;;;;;;9.84;68.58;100432.78;5032948;27;102682;-52
2022/02/17 05:15:44;;;;;;;22.52;16.58;;;;;;;9.85;68.40;100422.72;5028212;27;102750;-52
2022/02/17 05:18:10;;;;;;;23.17;16.95;;;;;;;9.85;69.02;100431.69;5012699;27;103349;-52
2022/02/17 05:20:37;;;;;;;24.20;16.98;;;;;;;9.85;68.87;100431.69;5006293;27;103865;-52
2022/02/17 05:23:03;;;;;;;25.75;17.25;;;;;;;9.84;68.78;100427.34;5007087;27;102440;-52
2022/02/17 05:25:31;;;;;;;22.65;16.38;;;;;;;9.85;68.95;100431.69;5005688;27;103701;-52
2022/02/17 05:27:57;;;;;;;24.30;17.00;;;;;;;9.85;68.92;100420.00;5004965;27;102434;-52
2022/02/17 05:30:25;;;;;;;22.17;16.67;;;;;;;9.84;68.67;100413.75;4995112;27;104197;-52
2022/02/17 05:32:52;;;;;;;22.95;16.38;;;;;;;9.86;68.92;100416.19;5002688;27;102549;-52
2022/02/17 05:35:18;;;;;;;21.67;15.82;;;;;;;9.86;68.59;100411.56;5002332;28;102440;-52
2022/02/17 05:37:44;;;;;;;23.02;16.83;;;;;;;9.87;68.56;100405.03;5007017;28;102592;-52
2022/02/17 05:40:13;;;;;;;20.00;15.35;;;;;;;9.86;69.23;100406.13;5006129;27;103900;-52
2022/02/17 05:42:39;;;;;;;21.98;16.63;;;;;;;9.87;69.01;100405.03;5004374;27;102528;-52
2022/02/17 05:45:07;;;;;;;22.58;16.40;;;;;;;9.87;68.54;100396.88;5012504;27;102658;-52
2022/02/17 05:47:34;;;;;;;25.92;17.23;;;;;;;9.87;68.67;100391.44;5022570;27;102658;-52
2022/02/17 05:50:01;;;;;;;24.75;17.15;;;;;;;9.89;68.70;100393.09;5013195;27;103928;-52
2022/02/17 05:52:27;;;;;;;25.83;16.73;;;;;;;9.89;68.84;100388.47;5000896;28;102642;-52
2022/02/17 05:54:53;;;;;;;24.27;17.08;;;;;;;9.89;68.81;100384.94;5012655;27;102391;-52
2022/02/17 05:57:27;;;;;;;22.33;16.13;;;;;;;9.89;68.54;100376.78;5025523;27;102251;-52
2022/02/17 05:59:53;;;;;;;22.65;16.45;;;;;;;9.90;68.57;100386.56;5020147;27;103993;-52
2022/02/17 06:02:19;;;;;;;25.45;17.75;;;;;;;9.88;68.51;100384.09;5011381;27;102313;-52
2022/02/17 06:04:47;;;;;;;22.75;16.38;;;;;;;9.90;68.37;100383.84;5000972;27;102333;-52
2022/02/17 06:07:14;;;;;;;24.52;15.25;;;;;;;9.90;68.77;100375.69;5006785;28;102419;-52
2022/02/17 06:09:43;;;;;;;21.10;15.68;;;;;;;9.90;68.80;100383.84;5003804;27;103669;-52
2022/02/17 06:12:10;;;;;;;22.85;16.27;;;;;;;9.91;68.94;100374.59;5004873;27;102532;-55
2022/02/17 06:14:37;;;;;;;24.20;15.90;;;;;;;9.91;68.84;100371.88;4997764;27;102813;-52
2022/02/17 06:17:05;;;;;;;24.52;15.25;;;;;;;9.92;68.94;100370.78;4999714;28;102705;-52
2022/02/17 06:19:31;;;;;;;22.15;15.98;;;;;;;9.92;68.54;100370.78;5009734;27;105182;-52
2022/02/17 06:21:59;;;;;;;25.25;17.02;;;;;;;9.93;68.55;100367.00;5022963;27;103734;-52
2022/02/17 06:24:25;;;;;;;24.70;16.15;;;;;;;9.92;68.54;100365.34;5024673;27;102606;-52
2022/02/17 06:26:52;;;;;;;21.92;15.70;;;;;;;9.93;68.33;100369.72;5023636;27;102770;-52
2022/02/17 06:29:18;;;;;;;25.25;17.25;;;;;;;9.92;69.02;100358.03;5020775;27;103658;-52
2022/02/17 06:31:45;;;;;;;25.17;16.15;;;;;;;9.94;69.02;100368.59;5023761;27;102161;-52
2022/02/17 06:34:11;;;;;;;24.55;16.80;;;;;;;9.94;69.16;100360.44;5027041;27;103531;-52
2022/02/17 06:36:37;;;;;;;25.02;17.95;;;;;;;9.93;68.81;100353.41;5007222;27;102793;-52
2022/02/17 06:39:05;;;;;;;22.73;16.73;;;;;;;9.93;68.64;100345.25;4998173;28;103402;-52
2022/02/17 06:41:31;;;;;;;25.33;18.10;;;;;;;9.93;68.33;100348.78;4998873;28;102523;-52
2022/02/17 06:43:58;;;;;;;24.08;15.82;;;;;;;9.93;68.67;100346.06;5002786;28;102311;-52
2022/02/17 06:46:24;;;;;;;28.63;17.52;;;;;;;9.94;68.92;100342.22;4997444;28;103263;-55
2022/02/17 06:48:55;;;;;;;23.90;17.35;;;;;;;9.94;68.94;100344.94;4998183;28;104004;-52
2022/02/17 06:51:21;;;;;;;23.65;16.73;;;;;;;9.93;68.51;100343.34;4997202;28;102512;-52
2022/02/17 06:53:47;;;;;;;22.88;16.88;;;;;;;9.94;68.62;100336.81;5018825;27;102821;-52
2022/02/17 06:56:15;;;;;;;24.60;17.08;;;;;;;9.95;68.97;100337.59;5020222;27;102315;-52
2022/02/17 06:58:41;;;;;;;22.35;16.95;;;;;;;9.96;69.05;100339.25;5019447;27;103937;-52
2022/02/17 07:01:08;;;;;;;22.77;16.17;;;;;;;9.95;68.72;100327.53;5017330;27;102949;-52
2022/02/17 07:03:35;;;;;;;25.63;17.52;;;;;;;9.96;68.76;100331.09;5021251;27;102329;-52
2022/02/17 07:06:02;;;;;;;25.35;17.33;;;;;;;9.96;68.50;100328.38;5021038;27;102763;-52
2022/02/17 07:08:28;;;;;;;26.50;16.52;;;;;;;9.95;68.41;100310.44;5022955;27;103984;-52
2022/02/17 07:10:54;;;;;;;29.23;17.38;;;;;;;9.97;69.23;100305.53;5002742;27;103056;-52
2022/02/17 07:13:29;;;;;;;27.52;17.85;;;;;;;9.97;68.43;100297.38;5001219;27;105010;-52
2022/02/17 07:15:56;;;;;;;26.48;17.05;;;;;;;9.98;69.25;100290.84;5000778;27;102831;-52
2022/02/17 07:18:24;;;;;;;23.73;16.40;;;;;;;9.99;68.84;100289.75;5021669;27;109456;-53
2022/02/17 07:20:54;;;;;;;26.73;16.60;;;;;;;9.98;69.09;100286.22;4999510;28;102174;-52
2022/02/17 07:23:24;;;;;;;25.88;16.85;;;;;;;10.00;68.61;100285.97;5003013;27;102688;-52
2022/02/17 07:25:50;;;;;;;;;;;;;;;9.98;68.86;100288.94;5010391;27;102270;-52
2022/02/17 07:28:16;;;;;;;28.65;16.23;;;;;;;10.01;69.23;100287.56;5024971;27;103657;-52
2022/02/17 07:30:44;;;;;;;27.45;16.73;;;;;;;10.00;68.95;100292.22;5018275;27;102390;-52
2022/02/17 07:33:11;;;;;;;24.13;16.05;;;;;;;10.02;68.95;100278.31;5020526;27;102384;-52
2022/02/17 07:35:37;;;;;;;25.90;17.40;;;;;;;10.01;68.75;100280.22;5028028;27;103782;-52
2022/02/17 07:38:03;;;;;;;24.98;16.83;;;;;;;10.02;68.90;100283.75;5022980;27;103000;-52
2022/02/17 07:40:30;;;;;;;26.80;18.13;;;;;;;10.02;68.96;100276.41;5017701;27;102445;-52
2022/02/17 07:43:00;;;;;;;24.88;16.85;;;;;;;10.03;68.91;100271.81;5024326;27;103100;-52
2022/02/17 07:45:26;;;;;;;24.17;16.70;;;;;;;10.03;68.39;100277.25;5025048;27;103039;-55
2022/02/17 07:47:54;;;;;;;30.02;18.23;;;;;;;10.03;69.17;100271.81;5019085;27;103938;-52
2022/02/17 07:50:25;;;;;;;24.63;16.27;;;;;;;10.05;68.63;100269.63;5026247;27;105153;-53
2022/02/17 07:52:53;;;;;;;24.55;16.80;;;;;;;10.05;68.35;100266.91;5028841;27;102561;-52
2022/02/17 07:55:20;;;;;;;22.53;16.23;;;;;;;10.05;68.71;100266.91;5026216;27;102977;-53
2022/02/17 07:57:46;;;;;;;27.75;16.80;;;;;;;10.07;68.70;100267.44;5019618;27;103903;-52
2022/02/17 08:00:14;;;;;;;27.17;16.80;;;;;;;10.06;68.77;100269.34;5015828;27;102649;-52
2022/02/17 08:02:42;;;;;;;26.90;16.65;;;;;;;10.06;68.77;100247.59;5016797;27;103378;-52
2022/02/17 08:05:12;;;;;;;25.40;17.80;;;;;;;10.07;69.03;100251.13;5007743;27;102028;-52
2022/02/17 08:07:39;;;;;;;25.70;16.75;;;;;;;10.08;68.61;100255.47;5004000;27;103856;-52
2022/02/17 08:10:07;;;;;;;25.10;16.63;;;;;;;10.08;69.05;100244.59;5005408;27;102429;-52
2022/02/17 08:12:38;;;;;;;29.85;16.45;;;;;;;10.08;68.72;100234.53;5003917;27;102338;-52
2022/02/17 08:15:05;;;;;;;26.45;16.25;;;;;;;10.09;68.71;100248.94;5009712;27;102582;-52
2022/02/17 08:17:51;;;;;;;25.40;15.30;;;;;;;10.09;68.31;100241.59;4997912;28;104921;-52
2022/02/17 08:20:19;;;;;;;25.10;16.08;;;;;;;10.09;68.70;100246.22;5008631;27;102371;-52
2022/02/17 08:22:48;;;;;;;25.85;16.00;;;;;;;10.10;68.59;100236.97;4999202;27;104369;-52
2022/02/17 08:25:14;;;;;;;26.13;16.48;;;;;;;10.10;68.61;100247.84;5008921;27;102578;-52
2022/02/17 08:27:52;;;;;;;22.85;16.08;;;;;;;10.10;68.95;100245.94;4999244;28;107074;-52
2022/02/17 08:30:19;;;;;;;23.42;16.13;;;;;;;10.11;68.89;100238.59;5014242;27;102659;-52
2022/02/17 08:32:46;;;;;;;22.30;15.50;;;;;;;10.11;68.42;100239.41;5021869;27;102199;-52
2022/02/17 08:35:14;;;;;;;25.80;15.98;;;;;;;10.12;68.62;100240.22;5003838;27;102827;-52
2022/02/17 08:37:42;;;;;;;21.35;15.18;;;;;;;10.14;68.94;100235.31;4999820;28;104443;-52
2022/02/17 08:40:10;;;;;;;27.63;16.93;;;;;;;10.14;68.87;100232.59;5005360;27;102027;-52
2022/02/17 08:42:36;;;;;;;20.67;15.93;;;;;;;10.16;68.81;100224.16;5006684;27;102396;-53
2022/02/17 08:45:04;;;;;;;28.60;15.77;;;;;;;10.15;68.60;100220.63;5007189;27;103513;-52
2022/02/17 08:47:30;;;;;;;21.80;15.77;;;;;;;10.15;68.73;100212.47;5006720;28;103994;-52
2022/02/17 08:49:56;;;;;;;22.90;15.38;;;;;;;10.18;69.09;100205.66;5010193;27;102265;-52
2022/02/17 08:52:23;;;;;;;23.15;15.60;;;;;;;10.17;68.99;100193.97;4997154;27;102712;-52
2022/02/17 08:54:50;;;;;;;25.15;15.65;;;;;;;10.17;68.66;100182.25;5025591;27;102427;-52
2022/02/17 08:57:17;;;;;;;24.63;15.65;;;;;;;10.19;69.14;100180.91;5025842;27;103914;-52
2022/02/17 08:59:43;;;;;;;23.17;16.27;;;;;;;10.20;69.32;100185.22;5019061;27;103348;-52
2022/02/17 09:02:10;;;;;;;21.75;15.23;;;;;;;10.22;68.76;100180.34;5018447;27;103191;-52
2022/02/17 09:04:38;;;;;;;29.05;15.57;;;;;;;10.24;68.93;100161.84;5027038;27;102486;-52
2022/02/17 09:07:05;;;;;;;25.83;16.23;;;;;;;10.25;68.67;100158.06;5024372;27;103306;-53
2022/02/17 09:09:31;;;;;;;24.00;14.80;;;;;;;10.26;68.74;100154.22;5021275;27;103572;-52
2022/02/17 09:11:59;;;;;;;24.88;15.93;;;;;;;10.28;68.75;100152.06;5023101;27;102800;-52
2022/02/17 09:14:25;;;;;;;23.42;15.43;;;;;;;10.29;69.08;100155.59;5002231;28;102409;-52
2022/02/17 09:16:53;;;;;;;24.73;15.50;;;;;;;10.29;68.77;100142.78;4999392;27;103733;-52
2022/02/17 09:19:20;;;;;;;23.60;15.55;;;;;;;10.30;69.09;100136.25;5025504;27;102239;-52
2022/02/17 09:21:46;;;;;;;26.13;16.70;;;;;;;10.31;68.62;100124.28;5016037;27;102782;-52
2022/02/17 09:24:12;;;;;;;28.52;15.73;;;;;;;10.33;68.80;100116.66;5016680;27;103381;-52
2022/02/17 09:26:39;;;;;;;21.15;14.30;;;;;;;10.33;68.95;100110.41;5018429;27;104114;-52
2022/02/17 09:29:08;;;;;;;22.75;15.40;;;;;;;10.34;69.02;100106.56;5022050;27;102363;-52
2022/02/17 09:31:36;;;;;;;22.20;15.70;;;;;;;10.33;68.64;100094.88;5025338;27;102158;-52
2022/02/17 09:34:02;;;;;;;22.67;14.85;;;;;;;10.34;68.75;100090.25;5027772;27;102251;-52
2022/02/17 09:36:29;;;;;;;22.55;15.65;;;;;;;10.34;68.54;100084.81;5026374;27;103751;-52
2022/02/17 09:38:56;;;;;;;26.42;15.00;;;;;;;10.36;68.74;100081.81;5027029;27;102283;-52
2022/02/17 09:41:23;;;;;;;26.27;16.23;;;;;;;10.36;69.14;100066.31;5023963;27;102687;-52
2022/02/17 09:43:51;;;;;;;23.63;14.98;;;;;;;10.35;68.86;100072.88;5033180;27;102870;-53
2022/02/17 09:46:21;;;;;;;23.40;15.32;;;;;;;10.36;68.85;100062.78;5021536;27;104098;-52
2022/02/17 09:48:55;;;;;;;21.10;15.15;;;;;;;10.37;68.64;100053.53;5024784;27;102491;-52
2022/02/17 09:51:23;;;;;;;23.38;15.52;;;;;;;10.38;69.13;100052.41;5026615;27;102407;-52
2022/02/17 09:53:50;;;;;;;23.73;15.13;;;;;;;10.37;68.80;100035.28;5025075;27;102810;-52
2022/02/17 09:56:17;;;;;;;21.48;15.43;;;;;;;10.38;68.83;100030.66;5016853;27;104009;-52
2022/02/17 09:58:43;;;;;;;19.58;14.02;;;;;;;10.38;68.57;100036.91;5005256;27;103760;-52
2022/02/17 10:01:16;;;;;;;22.55;14.57;;;;;;;10.39;68.90;100026.88;5016651;27;102764;-52
2022/02/17 10:03:43;;;;;;;22.77;15.18;;;;;;;10.37;69.10;100013.53;5026736;27;102113;-52
2022/02/17 10:06:12;;;;;;;22.40;14.40;;;;;;;10.39;68.79;100011.34;5020986;27;103879;-52
2022/02/17 10:08:40;;;;;;;22.85;14.65;;;;;;;10.39;68.87;100003.19;5023002;27;102294;-53
2022/02/17 10:11:12;;;;;;;19.80;14.18;;;;;;;10.40;68.75;100004.00;5002491;28;102368;-52
2022/02/17 10:13:38;;;;;;;24.20;14.77;;;;;;;10.40;68.69;100004.00;5006529;27;102364;-52
2022/02/17 10:16:05;;;;;;;20.17;15.07;;;;;;;10.41;68.89;100002.88;4998869;28;104025;-52
2022/02/17 10:18:38;;;;;;;21.70;15.00;;;;;;;10.40;69.09;99993.13;4998783;28;102545;-52
2022/02/17 10:21:09;;;;;;;23.50;15.40;;;;;;;10.39;69.03;99989.59;5010051;27;102849;-52
2022/02/17 10:23:39;;;;;;;24.10;14.63;;;;;;;10.38;69.01;99987.94;5014368;27;105091;-52
2022/02/17 10:26:09;;;;;;;22.77;15.07;;;;;;;10.40;68.93;99982.22;5017007;27;105710;-52
2022/02/17 10:28:37;;;;;;;24.83;15.35;;;;;;;10.40;68.66;99980.31;5021041;27;102357;-52
2022/02/17 10:31:05;;;;;;;21.13;15.67;;;;;;;10.40;69.09;99968.63;5006328;27;102358;-52
2022/02/17 10:33:43;;;;;;;25.10;15.23;;;;;;;10.40;68.46;99968.63;4999877;28;102620;-52
2022/02/17 10:36:13;;;;;;;27.73;14.85;;;;;;;10.42;68.83;99958.25;5004818;27;103961;-52
2022/02/17 10:38:41;;;;;;;23.88;14.48;;;;;;;10.40;68.71;99952.31;4992515;27;104428;-52
2022/02/17 10:41:07;;;;;;;28.83;16.40;;;;;;;10.40;69.12;99949.59;5000469;27;102643;-52
2022/02/17 10:43:34;;;;;;;25.33;15.73;;;;;;;10.41;69.24;99940.31;4995274;28;102460;-53
2022/02/17 10:46:06;;;;;;;24.92;16.05;;;;;;;10.41;69.08;99934.88;5004693;27;103795;-52
2022/02/17 10:48:34;;;;;;;28.85;16.05;;;;;;;10.41;69.14;99932.97;5000982;27;103285;-52
2022/02/17 10:51:06;;;;;;;23.35;15.82;;;;;;;10.41;68.91;99924.81;4997750;28;102240;-52
2022/02/17 10:53:37;;;;;;;25.10;16.33;;;;;;;10.41;69.06;99915.84;5003834;27;102299;-53
2022/02/17 10:56:05;;;;;;;24.77;14.95;;;;;;;10.41;69.30;99915.84;5022735;27;103478;-53
2022/02/17 10:58:36;;;;;;;24.30;16.50;;;;;;;10.42;69.21;99901.13;5020170;27;102256;-53
2022/02/17 11:01:04;;;;;;;22.55;15.43;;;;;;;10.43;69.41;99905.50;5009417;27;102099;-52
2022/02/17 11:03:33;;;;;;;27.52;16.00;;;;;;;10.42;69.09;99895.69;5009657;27;102667;-52
2022/02/17 11:06:00;;;;;;;32.97;16.15;;;;;;;10.42;68.83;99890.25;5026832;27;103679;-53
2022/02/17 11:08:26;;;;;;;21.48;15.77;;;;;;;10.41;69.10;99881.28;5023172;27;102691;-55
2022/02/17 11:10:56;;;;;;;21.88;15.60;;;;;;;10.41;68.91;99875.84;5016471;27;102171;-52